createdAt,value
2018-12-02T00:00:52.435Z,14.73
2018-12-02T00:03:20.839Z,14.83
2018-12-02T00:05:49.270Z,14.83
2018-12-02T00:08:17.691Z,15.63
2018-12-02T00:10:46.098Z,15.63
2018-12-02T00:13:14.655Z,16.83
2018-12-02T00:15:43.229Z,16.63
2018-12-02T00:18:13.028Z,15.20
2018-12-02T00:20:41.921Z,15.87
2018-12-02T00:23:10.703Z,15.73
2018-12-02T00:25:39.145Z,14.77
2018-12-02T00:28:09.050Z,15.03
2018-12-02T00:30:37.534Z,14.80
2018-12-02T00:33:06.808Z,15.80
2018-12-02T00:35:35.453Z,16.67
2018-12-02T00:38:05.612Z,15.70
2018-12-02T00:40:34.208Z,15.40
2018-12-02T00:43:02.620Z,14.60
2018-12-02T00:45:34.568Z,14.63
2018-12-02T00:48:07.003Z,14.07
2018-12-02T00:50:35.703Z,13.63
2018-12-02T00:53:04.669Z,13.80
2018-12-02T00:55:39.451Z,12.40
2018-12-02T00:58:07.868Z,12.97
2018-12-02T01:00:36.334Z,13.80
2018-12-02T01:03:05.968Z,11.90
2018-12-02T01:05:34.398Z,10.97
2018-12-02T01:08:02.822Z,12.03
2018-12-02T01:10:31.245Z,12.10
2018-12-02T01:12:59.933Z,11.87
2018-12-02T01:15:29.911Z,11.97
2018-12-02T01:17:58.330Z,12.73
2018-12-02T01:20:26.768Z,12.37
2018-12-02T01:22:55.209Z,12.43
2018-12-02T01:25:23.618Z,12.50
2018-12-02T01:27:52.044Z,12.07
2018-12-02T01:30:22.582Z,12.00
2018-12-02T01:32:52.040Z,13.00
2018-12-02T01:35:20.487Z,12.53
2018-12-02T01:37:49.046Z,12.40
2018-12-02T01:40:20.293Z,12.03
2018-12-02T01:42:49.374Z,11.83
2018-12-02T01:45:20.752Z,13.07
2018-12-02T01:47:49.244Z,11.67
2018-12-02T01:50:18.656Z,12.50
2018-12-02T01:52:53.169Z,11.80
2018-12-02T01:55:21.591Z,13.17
2018-12-02T01:57:50.130Z,12.20
2018-12-02T02:00:24.064Z,12.33
2018-12-02T02:02:53.031Z,12.17
2018-12-02T02:05:22.526Z,12.73
2018-12-02T02:07:50.989Z,12.17
2018-12-02T02:10:35.316Z,12.83
2018-12-02T02:13:03.782Z,11.67
2018-12-02T02:15:32.212Z,12.67
2018-12-02T02:18:00.630Z,12.47
2018-12-02T02:20:29.060Z,11.77
2018-12-02T02:22:57.459Z,13.53
2018-12-02T02:25:25.882Z,12.60
2018-12-02T02:27:57.474Z,12.10
2018-12-02T02:30:27.267Z,11.13
2018-12-02T02:32:55.682Z,11.57
2018-12-02T02:35:24.118Z,11.33
2018-12-02T02:37:53.731Z,10.87
2018-12-02T02:40:23.988Z,10.70
2018-12-02T02:42:52.832Z,10.27
2018-12-02T02:45:21.432Z,10.60
2018-12-02T02:47:49.844Z,10.83
2018-12-02T02:50:20.689Z,11.97
2018-12-02T02:52:59.087Z,10.93
2018-12-02T02:55:27.520Z,11.60
2018-12-02T02:57:56.027Z,10.70
2018-12-02T03:00:25.560Z,11.70
2018-12-02T03:02:54.008Z,10.90
2018-12-02T03:05:22.523Z,10.37
2018-12-02T03:07:51.002Z,9.80
2018-12-02T03:10:20.629Z,10.20
2018-12-02T03:12:51.129Z,9.40
2018-12-02T03:15:20.310Z,11.10
2018-12-02T03:17:48.730Z,10.03
2018-12-02T03:20:22.842Z,11.20
2018-12-02T03:22:52.919Z,9.83
2018-12-02T03:25:24.100Z,11.77
2018-12-02T03:27:52.554Z,10.10
2018-12-02T03:30:23.728Z,10.00
2018-12-02T03:32:52.353Z,9.87
2018-12-02T03:35:21.688Z,10.27
2018-12-02T03:37:50.984Z,10.50
2018-12-02T03:40:22.474Z,10.23
2018-12-02T03:42:51.698Z,11.57
2018-12-02T03:45:22.035Z,11.40
2018-12-02T03:47:50.482Z,11.80
2018-12-02T03:50:20.079Z,10.83
2018-12-02T03:52:49.220Z,11.20
2018-12-02T03:55:17.616Z,12.37
2018-12-02T03:57:46.059Z,10.57
2018-12-02T04:00:18.045Z,12.33
2018-12-02T04:02:46.507Z,11.67
2018-12-02T04:05:17.708Z,10.73
2018-12-02T04:07:46.211Z,10.13
2018-12-02T04:10:16.424Z,11.67
2018-12-02T04:12:45.681Z,11.00
2018-12-02T04:15:17.003Z,11.67
2018-12-02T04:17:46.312Z,11.63
2018-12-02T04:20:15.711Z,10.63
2018-12-02T04:22:44.713Z,13.67
2018-12-02T04:25:15.324Z,11.17
2018-12-02T04:27:43.753Z,11.30
2018-12-02T04:30:16.739Z,11.90
2018-12-02T04:32:45.629Z,11.50
2018-12-02T04:35:15.253Z,12.00
2018-12-02T04:37:43.718Z,11.50
2018-12-02T04:40:12.995Z,12.83
2018-12-02T04:42:41.499Z,12.03
2018-12-02T04:45:11.829Z,14.17
2018-12-02T04:47:40.485Z,13.97
2018-12-02T04:50:10.844Z,13.77
2018-12-02T04:52:39.264Z,14.37
2018-12-02T04:55:08.414Z,25.13
2018-12-02T04:57:36.829Z,13.47
2018-12-02T05:00:08.028Z,13.77
2018-12-02T05:02:36.435Z,20.43
2018-12-02T05:05:07.409Z,19.10
2018-12-02T05:07:35.852Z,16.87
2018-12-02T05:10:06.215Z,13.83
2018-12-02T05:12:34.651Z,13.07
2018-12-02T05:15:03.305Z,11.33
2018-12-02T05:17:31.777Z,12.03
2018-12-02T05:20:00.199Z,14.23
2018-12-02T05:22:28.615Z,13.03
2018-12-02T05:24:57.101Z,11.33
2018-12-02T05:27:25.501Z,11.87
2018-12-02T05:29:53.932Z,12.77
2018-12-02T05:32:22.341Z,12.13
2018-12-02T05:34:50.754Z,10.47
2018-12-02T05:37:19.158Z,13.57
2018-12-02T05:39:47.644Z,13.63
2018-12-02T05:42:21.252Z,13.17
2018-12-02T05:44:49.667Z,19.70
2018-12-02T05:47:18.074Z,20.13
2018-12-02T05:49:46.495Z,11.30
2018-12-02T05:52:14.909Z,14.30
2018-12-02T05:54:43.349Z,20.90
2018-12-02T05:57:11.761Z,13.50
2018-12-02T05:59:40.203Z,16.13
2018-12-02T06:02:08.637Z,16.63
2018-12-02T06:04:37.066Z,17.97
2018-12-02T06:07:05.856Z,16.70
2018-12-02T06:09:34.367Z,17.20
2018-12-02T06:12:02.781Z,16.47
2018-12-02T06:14:31.241Z,15.70
2018-12-02T06:16:59.639Z,15.17
2018-12-02T06:19:28.059Z,15.57
2018-12-02T06:21:56.484Z,14.97
2018-12-02T06:24:24.889Z,13.57
2018-12-02T06:26:53.299Z,14.07
2018-12-02T06:29:21.711Z,12.60
2018-12-02T06:31:50.132Z,12.67
2018-12-02T06:34:18.521Z,12.40
2018-12-02T06:36:46.919Z,12.67
2018-12-02T06:39:15.345Z,11.53
2018-12-02T06:41:43.763Z,12.00
2018-12-02T06:44:12.193Z,11.80
2018-12-02T06:46:40.657Z,11.10
2018-12-02T06:49:09.071Z,18.20
2018-12-02T06:51:37.535Z,14.23
2018-12-02T06:54:06.106Z,10.97
2018-12-02T06:56:38.511Z,9.90
2018-12-02T06:59:20.033Z,8.33
2018-12-02T07:02:04.567Z,10.53
2018-12-02T07:04:35.847Z,10.13
2018-12-02T07:07:04.777Z,10.10
2018-12-02T07:09:33.212Z,10.47
2018-12-02T07:12:01.643Z,26.03
2018-12-02T07:14:30.066Z,36.20
2018-12-02T07:16:58.619Z,15.03
2018-12-02T07:19:34.735Z,11.03
2018-12-02T07:22:33.983Z,12.03
2018-12-02T07:25:08.455Z,11.93
2018-12-02T07:27:36.979Z,11.63
2018-12-02T07:30:07.258Z,11.47
2018-12-02T07:32:35.762Z,12.00
2018-12-02T07:35:04.235Z,11.37
2018-12-02T07:37:32.640Z,10.73
2018-12-02T07:40:13.012Z,14.83
2018-12-02T07:42:41.447Z,11.67
2018-12-02T07:45:09.983Z,10.00
2018-12-02T07:47:38.412Z,12.33
2018-12-02T07:50:08.541Z,11.77
2018-12-02T07:52:37.190Z,10.33
2018-12-02T07:55:06.924Z,11.60
2018-12-02T07:57:36.092Z,11.63
2018-12-02T08:00:08.827Z,12.27
2018-12-02T08:02:37.418Z,11.97
2018-12-02T08:05:07.134Z,12.07
2018-12-02T08:07:35.624Z,12.00
2018-12-02T08:10:04.786Z,12.63
2018-12-02T08:12:33.201Z,12.00
2018-12-02T08:15:01.638Z,11.50
2018-12-02T08:17:30.069Z,11.40
2018-12-02T08:19:58.498Z,11.20
2018-12-02T08:22:26.926Z,10.93
2018-12-02T08:24:55.434Z,11.63
2018-12-02T08:27:23.880Z,10.73
2018-12-02T08:29:52.277Z,11.57
2018-12-02T08:32:20.687Z,11.23
2018-12-02T08:34:49.084Z,11.37
2018-12-02T08:37:17.533Z,10.77
2018-12-02T08:39:45.957Z,12.47
2018-12-02T08:42:14.403Z,11.83
2018-12-02T08:44:42.852Z,12.87
2018-12-02T08:47:22.595Z,14.37
2018-12-02T08:49:51.037Z,12.83
2018-12-02T08:52:19.667Z,12.57
2018-12-02T08:54:48.112Z,12.60
2018-12-02T08:57:16.547Z,11.27
2018-12-02T08:59:45.680Z,10.73
2018-12-02T09:02:14.124Z,11.47
2018-12-02T09:04:42.651Z,11.60
2018-12-02T09:07:11.096Z,11.83
2018-12-02T09:09:39.498Z,11.10
2018-12-02T09:12:07.942Z,11.63
2018-12-02T09:14:36.410Z,10.67
2018-12-02T09:17:04.868Z,12.67
2018-12-02T09:19:33.324Z,12.87
2018-12-02T09:22:01.756Z,10.50
2018-12-02T09:24:30.824Z,10.53
2018-12-02T09:26:59.310Z,11.07
2018-12-02T09:29:27.752Z,11.90
2018-12-02T09:31:56.176Z,13.67
2018-12-02T09:34:24.726Z,15.37
2018-12-02T09:36:57.943Z,15.13
2018-12-02T09:39:21.608Z,13.73
2018-12-02T09:41:50.196Z,12.73
2018-12-02T09:44:18.732Z,10.80
2018-12-02T09:46:47.214Z,10.43
2018-12-02T09:49:15.656Z,10.03
2018-12-02T09:51:44.203Z,10.10
2018-12-02T09:54:12.663Z,10.87
2018-12-02T09:56:41.249Z,10.20
2018-12-02T09:59:09.805Z,10.80
2018-12-02T10:01:38.242Z,10.90
2018-12-02T10:04:06.789Z,9.83
2018-12-02T10:06:35.301Z,10.60
2018-12-02T10:09:04.334Z,11.80
2018-12-02T10:11:32.823Z,12.43
2018-12-02T10:14:01.307Z,12.13
2018-12-02T10:16:31.494Z,11.10
2018-12-02T10:19:00.065Z,13.17
2018-12-02T10:21:28.821Z,11.43
2018-12-02T10:23:57.300Z,11.40
2018-12-02T10:26:25.793Z,12.77
2018-12-02T10:28:54.247Z,13.07
2018-12-02T10:31:22.805Z,13.57
2018-12-02T10:33:51.282Z,14.47
2018-12-02T10:36:19.814Z,15.40
2018-12-02T10:38:48.266Z,14.97
2018-12-02T10:41:16.879Z,14.43
2018-12-02T10:43:45.355Z,13.80
2018-12-02T10:46:13.985Z,12.23
2018-12-02T10:48:42.488Z,13.27
2018-12-02T10:51:10.974Z,13.07
2018-12-02T10:53:39.579Z,13.07
2018-12-02T10:56:08.109Z,13.17
2018-12-02T10:58:36.893Z,13.03
2018-12-02T11:01:11.641Z,12.50
2018-12-02T11:03:40.093Z,12.03
2018-12-02T11:06:08.688Z,10.37
2018-12-02T11:08:37.261Z,11.30
2018-12-02T11:11:06.079Z,10.03
2018-12-02T11:13:34.704Z,11.47
2018-12-02T11:16:03.218Z,11.13
2018-12-02T11:18:31.756Z,11.33
2018-12-02T11:21:00.272Z,11.60
2018-12-02T11:23:28.759Z,11.97
2018-12-02T11:25:57.330Z,11.37
2018-12-02T11:28:25.831Z,11.63
2018-12-02T11:30:54.278Z,13.97
2018-12-02T11:33:22.825Z,12.90
2018-12-02T11:35:51.447Z,12.20
2018-12-02T11:38:20.006Z,11.83
2018-12-02T11:40:48.465Z,12.33
2018-12-02T11:43:17.015Z,13.60
2018-12-02T11:45:45.554Z,11.53
2018-12-02T11:48:14.008Z,11.43
2018-12-02T11:50:42.559Z,11.87
2018-12-02T11:53:11.129Z,10.77
2018-12-02T11:55:39.712Z,11.03
2018-12-02T11:58:08.258Z,11.87
2018-12-02T12:00:38.470Z,12.07
2018-12-02T12:03:15.299Z,13.83
2018-12-02T12:05:43.898Z,14.33
2018-12-02T12:08:12.930Z,12.27
2018-12-02T12:10:41.457Z,12.47
2018-12-02T12:13:10.023Z,11.70
2018-12-02T12:15:38.596Z,11.63
2018-12-02T12:18:09.085Z,10.77
2018-12-02T12:20:42.993Z,11.13
2018-12-02T12:23:15.506Z,10.63
2018-12-02T12:25:44.533Z,10.27
2018-12-02T12:28:13.101Z,12.40
2018-12-02T12:30:41.694Z,10.70
2018-12-02T12:33:11.218Z,14.20
2018-12-02T12:35:41.731Z,10.17
2018-12-02T12:38:11.425Z,10.77
2018-12-02T12:40:41.489Z,14.13
2018-12-02T12:43:30.784Z,12.60
2018-12-02T12:46:00.984Z,12.93
2018-12-02T12:48:29.822Z,14.37
2018-12-02T12:50:58.555Z,15.00
2018-12-02T12:53:27.248Z,14.07
2018-12-02T12:55:55.892Z,14.53
2018-12-02T12:58:24.494Z,13.70
2018-12-02T13:00:53.218Z,13.13
2018-12-02T13:03:22.967Z,12.27
2018-12-02T13:05:52.245Z,24.40
2018-12-02T13:08:20.849Z,22.07
2018-12-02T13:10:49.418Z,21.50
2018-12-02T13:13:18.050Z,22.50
2018-12-02T13:15:46.681Z,18.07
2018-12-02T13:18:16.070Z,14.53
2018-12-02T13:20:50.636Z,26.73
2018-12-02T13:23:19.403Z,15.80
2018-12-02T13:25:48.568Z,13.17
2018-12-02T13:28:17.892Z,13.53
2018-12-02T13:30:46.714Z,9.93
2018-12-02T13:33:15.381Z,10.03
2018-12-02T13:35:49.213Z,6.60
2018-12-02T13:38:18.079Z,5.30
2018-12-02T13:40:46.796Z,5.30
2018-12-02T13:43:18.868Z,5.37
2018-12-02T13:45:48.729Z,4.93
2018-12-02T13:48:17.382Z,4.97
2018-12-02T13:50:46.138Z,6.97
2018-12-02T13:53:15.218Z,4.83
2018-12-02T13:55:44.109Z,4.37
2018-12-02T13:58:13.170Z,6.23
2018-12-02T14:00:43.367Z,7.57
2018-12-02T14:03:13.401Z,11.83
2018-12-02T14:05:47.211Z,11.03
2018-12-02T14:08:16.240Z,12.83
2018-12-02T14:10:45.944Z,13.03
2018-12-02T14:13:19.384Z,12.43
2018-12-02T14:16:13.527Z,10.40
2018-12-02T14:18:43.627Z,12.63
2018-12-02T14:21:12.382Z,8.70
2018-12-02T14:23:44.209Z,9.47
2018-12-02T14:26:17.673Z,9.95
2018-12-02T14:28:58.563Z,9.80
2018-12-02T14:31:29.771Z,9.13
2018-12-02T14:33:58.638Z,10.67
2018-12-02T14:36:27.412Z,8.13
2018-12-02T14:38:56.244Z,7.50
2018-12-02T14:41:24.970Z,8.00
2018-12-02T14:43:54.178Z,10.83
2018-12-02T14:46:26.668Z,10.07
2018-12-02T14:48:55.554Z,9.90
2018-12-02T14:51:24.530Z,9.43
2018-12-02T14:53:54.021Z,9.27
2018-12-02T14:56:22.721Z,20.27
2018-12-02T14:58:51.366Z,10.07
2018-12-02T15:01:20.099Z,9.53
2018-12-02T15:03:48.864Z,12.93
2018-12-02T15:06:17.566Z,12.63
2018-12-02T15:08:46.332Z,16.97
2018-12-02T15:11:15.158Z,15.47
2018-12-02T15:13:43.944Z,14.73
2018-12-02T15:16:13.284Z,12.63
2018-12-02T15:18:42.117Z,16.50
2018-12-02T15:21:10.990Z,14.70
2018-12-02T15:23:39.965Z,15.77
2018-12-02T15:26:09.164Z,19.10
2018-12-02T15:28:38.067Z,19.03
2018-12-02T15:31:07.393Z,22.70
2018-12-02T15:33:36.167Z,22.27
2018-12-02T15:36:05.528Z,20.67
2018-12-02T15:38:34.371Z,18.87
2018-12-02T15:41:03.202Z,18.57
2018-12-02T15:43:32.368Z,17.07
2018-12-02T15:46:01.531Z,13.40
2018-12-02T15:48:30.582Z,11.50
2018-12-02T15:50:59.732Z,11.93
2018-12-02T15:53:28.579Z,10.67
2018-12-02T15:55:58.880Z,9.87
2018-12-02T15:58:28.280Z,10.53
2018-12-02T16:00:57.744Z,10.80
2018-12-02T16:03:26.946Z,10.70
2018-12-02T16:05:55.719Z,10.17
2018-12-02T16:08:24.634Z,13.00
2018-12-02T16:10:53.495Z,11.97
2018-12-02T16:13:22.383Z,15.60
2018-12-02T16:15:51.996Z,18.20
2018-12-02T16:18:20.871Z,19.43
2018-12-02T16:20:51.689Z,19.33
2018-12-02T16:23:21.900Z,20.57
2018-12-02T16:25:50.906Z,19.00
2018-12-02T16:28:20.779Z,16.67
2018-12-02T16:30:51.170Z,18.20
2018-12-02T16:33:20.127Z,21.27
2018-12-02T16:35:49.024Z,21.60
2018-12-02T16:38:17.911Z,27.40
2018-12-02T16:40:46.790Z,26.10
2018-12-02T16:43:16.728Z,22.50
2018-12-02T16:45:44.727Z,20.23
2018-12-02T16:48:13.594Z,25.17
2018-12-02T16:50:44.035Z,27.50
2018-12-02T16:53:18.406Z,29.47
2018-12-02T16:55:53.513Z,22.47
2018-12-02T16:58:31.247Z,19.67
2018-12-02T17:01:15.608Z,17.20
2018-12-02T17:03:44.592Z,14.67
2018-12-02T17:06:13.488Z,17.50
2018-12-02T17:08:43.155Z,17.23
2018-12-02T17:11:13.207Z,17.03
2018-12-02T17:13:41.205Z,14.60
2018-12-02T17:16:10.132Z,28.47
2018-12-02T17:18:39.026Z,25.57
2018-12-02T17:21:08.152Z,29.23
2018-12-02T17:23:37.034Z,20.60
2018-12-02T17:26:06.653Z,29.53
2018-12-02T17:28:36.055Z,22.97
2018-12-02T17:31:08.845Z,20.07
2018-12-02T17:33:37.766Z,16.83
2018-12-02T17:36:06.806Z,16.90
2018-12-02T17:38:37.019Z,17.00
2018-12-02T17:41:08.532Z,17.30
2018-12-02T17:43:37.665Z,17.07
2018-12-02T17:46:08.314Z,20.20
2018-12-02T17:48:38.142Z,18.97
2018-12-02T17:51:09.266Z,23.27
2018-12-02T17:53:39.752Z,24.20
2018-12-02T17:56:09.972Z,22.80
2018-12-02T17:58:39.283Z,25.10
2018-12-02T18:01:08.912Z,24.30
2018-12-02T18:03:38.363Z,22.73
2018-12-02T18:06:09.222Z,20.10
2018-12-02T18:08:38.803Z,14.33
2018-12-02T18:11:11.049Z,12.83
2018-12-02T18:13:40.694Z,13.17
2018-12-02T18:16:09.642Z,11.37
2018-12-02T18:18:39.280Z,11.70
2018-12-02T18:21:08.510Z,12.30
2018-12-02T18:23:37.604Z,12.97
2018-12-02T18:26:07.863Z,13.10
2018-12-02T18:28:36.859Z,14.63
2018-12-02T18:31:07.705Z,13.43
2018-12-02T18:33:38.345Z,13.97
2018-12-02T18:36:09.641Z,13.77
2018-12-02T18:38:40.743Z,13.03
2018-12-02T18:41:32.448Z,14.23
2018-12-02T18:44:02.058Z,14.17
2018-12-02T18:46:31.619Z,13.83
2018-12-02T18:49:01.573Z,13.93
2018-12-02T18:51:31.509Z,13.67
2018-12-02T18:54:04.136Z,17.60
2018-12-02T18:56:34.000Z,17.63
2018-12-02T18:59:03.643Z,16.70
2018-12-02T19:01:32.685Z,16.70
2018-12-02T19:04:03.110Z,17.53
2018-12-02T19:06:32.489Z,18.27
2018-12-02T19:09:01.501Z,21.20
2018-12-02T19:11:31.117Z,23.97
2018-12-02T19:14:00.284Z,24.27
2018-12-02T19:16:30.755Z,22.93
2018-12-02T19:19:00.289Z,21.67
2018-12-02T19:21:30.788Z,22.03
2018-12-02T19:24:00.300Z,26.63
2018-12-02T19:26:30.679Z,24.63
2018-12-02T19:28:59.734Z,28.50
2018-12-02T19:31:29.692Z,26.70
2018-12-02T19:34:00.483Z,24.10
2018-12-02T19:36:32.505Z,27.83
2018-12-02T19:39:03.156Z,24.43
2018-12-02T19:41:32.278Z,29.83
2018-12-02T19:44:02.218Z,28.03
2018-12-02T19:46:32.188Z,22.40
2018-12-02T19:49:01.351Z,21.50
2018-12-02T19:51:31.383Z,21.33
2018-12-02T19:56:30.292Z,23.13
2018-12-02T19:58:59.477Z,23.53
2018-12-02T20:01:30.718Z,23.57
2018-12-02T20:04:00.237Z,24.47
2018-12-02T20:06:29.699Z,23.83
2018-12-02T20:09:03.223Z,23.57
2018-12-02T20:11:32.456Z,33.77
2018-12-02T20:14:01.914Z,29.33
2018-12-02T20:16:32.426Z,26.67
2018-12-02T20:21:42.175Z,32.03
2018-12-02T20:24:16.559Z,33.43
2018-12-02T20:26:45.811Z,28.60
2018-12-02T20:29:15.631Z,26.60
2018-12-02T20:31:44.971Z,26.20
2018-12-02T20:34:17.339Z,31.70
2018-12-02T20:36:46.963Z,29.03
2018-12-02T20:39:17.617Z,34.37
2018-12-02T20:41:49.288Z,36.90
2018-12-02T20:44:20.681Z,31.30
2018-12-02T20:46:50.699Z,25.80
2018-12-02T20:49:19.797Z,23.07
2018-12-02T20:51:49.078Z,19.10
2018-12-02T20:54:20.757Z,20.23
2018-12-02T20:56:49.896Z,17.83
2018-12-02T20:59:19.359Z,16.83
2018-12-02T21:01:49.006Z,18.23
2018-12-02T21:04:19.130Z,20.00
2018-12-02T21:06:50.253Z,18.80
2018-12-02T21:09:19.571Z,16.97
2018-12-02T21:11:48.658Z,17.47
2018-12-02T21:14:18.195Z,18.07
2018-12-02T21:16:47.798Z,18.83
2018-12-02T21:19:16.946Z,21.03
2018-12-02T21:21:46.608Z,25.17
2018-12-02T21:24:15.566Z,24.17
2018-12-02T21:26:44.612Z,22.57
2018-12-02T21:29:13.732Z,23.73
2018-12-02T21:31:42.695Z,22.03
2018-12-02T21:34:11.627Z,21.57
2018-12-02T21:36:40.852Z,20.63
2018-12-02T21:39:10.728Z,18.67
2018-12-02T21:41:40.370Z,21.03
2018-12-02T21:44:09.297Z,23.03
2018-12-02T21:46:38.199Z,23.67
2018-12-02T21:49:07.185Z,29.37
2018-12-02T21:51:35.980Z,25.53
2018-12-02T21:54:04.855Z,24.87
2018-12-02T21:56:33.689Z,27.37
2018-12-02T21:59:02.511Z,24.60
2018-12-02T22:01:31.259Z,28.43
2018-12-02T22:03:59.957Z,27.23
2018-12-02T22:06:28.630Z,27.73
2018-12-02T22:08:57.244Z,27.97
2018-12-02T22:11:25.834Z,27.27
2018-12-02T22:13:54.425Z,29.07
2018-12-02T22:16:22.940Z,30.73
2018-12-02T22:18:51.476Z,29.77
2018-12-02T22:21:19.972Z,25.73
2018-12-02T22:23:48.455Z,21.93
2018-12-02T22:26:16.944Z,26.33
2018-12-02T22:28:45.390Z,25.37
2018-12-02T22:31:13.958Z,26.13
2018-12-02T22:33:42.415Z,27.20
2018-12-02T22:36:13.949Z,25.00
2018-12-02T22:38:39.332Z,29.93
2018-12-02T22:41:07.818Z,28.13
2018-12-02T22:43:36.238Z,31.63
2018-12-02T22:46:04.790Z,25.63
2018-12-02T22:48:33.222Z,27.43
2018-12-02T22:51:01.760Z,26.90
2018-12-02T22:53:30.178Z,25.53
2018-12-02T22:55:58.615Z,27.63
2018-12-02T22:58:27.016Z,27.03
2018-12-02T23:01:00.763Z,25.83
2018-12-02T23:03:29.166Z,23.90
2018-12-02T23:05:57.564Z,16.90
2018-12-02T23:08:26.048Z,19.30
2018-12-02T23:10:54.528Z,19.33
2018-12-02T23:13:22.974Z,21.10
2018-12-02T23:15:51.410Z,20.83
2018-12-02T23:18:19.860Z,19.27
2018-12-02T23:20:48.302Z,18.80
2018-12-02T23:23:16.760Z,24.57
2018-12-02T23:25:45.217Z,28.23
2018-12-02T23:28:13.658Z,24.23
2018-12-02T23:30:42.103Z,22.43
2018-12-02T23:33:10.588Z,19.00
2018-12-02T23:35:39.016Z,16.73
2018-12-02T23:38:13.894Z,16.90
2018-12-02T23:40:42.313Z,15.37
2018-12-02T23:43:10.744Z,17.27
2018-12-02T23:45:39.192Z,15.80
2018-12-02T23:48:07.672Z,14.67
2018-12-02T23:50:36.169Z,14.03
2018-12-02T23:53:05.296Z,15.00
2018-12-02T23:55:33.734Z,16.37
2018-12-02T23:58:02.197Z,17.37
